Time;durP1;ratioP1;P1;durP2;ratioP2;P2;SDS_P1;SDS_P2;PMS_P1;PMS_P2;Temp;Humidity;BMP_temperature;BMP_pressure;BME280_temperature;BME280_humidity;BME280_pressure;Samples;Min_cycle;Max_cycle;Signal;HPM_P1;HPM_P2
2022/03/10 00:00:05;;;;;;;;;;;21.20;25.90;;;;;;498924;239;1086;-38
2022/03/10 00:02:06;;;;;;;;;;;21.30;25.90;;;;;;498311;239;2173;-39
2022/03/10 00:04:08;;;;;;;;;;;21.20;26.00;;;;;;498880;239;1062;-38
2022/03/10 00:06:09;;;;;;;;;;;21.20;25.90;;;;;;498455;239;1094;-38
2022/03/10 00:08:10;;;;;;;;;;;21.20;26.00;;;;;;498910;239;1095;-39
2022/03/10 00:10:12;;;;;;;;;;;21.20;26.00;;;;;;498480;239;1338;-38
2022/03/10 00:12:13;;;;;;;;;;;21.20;26.00;;;;;;498929;239;1040;-38
2022/03/10 00:14:14;;;;;;;;;;;21.10;25.90;;;;;;498446;239;1060;-38
2022/03/10 00:16:16;;;;;;;;;;;21.20;26.00;;;;;;498444;239;1027;-39
2022/03/10 00:18:17;;;;;;;;;;;21.10;26.00;;;;;;498467;239;1204;-38
2022/03/10 00:20:19;;;;;;;;;;;21.20;26.00;;;;;;498848;239;1058;-38
2022/03/10 00:22:20;;;;;;;;;;;21.20;26.00;;;;;;498851;239;2181;-38
2022/03/10 00:24:21;;;;;;;;;;;21.20;26.00;;;;;;498907;239;1107;-39
2022/03/10 00:26:23;;;;;;;;;;;21.10;26.00;;;;;;498420;239;1291;-38
2022/03/10 00:28:24;;;;;;;;;;;21.10;26.00;;;;;;498442;239;1052;-39
2022/03/10 00:30:25;;;;;;;;;;;21.20;26.00;;;;;;498460;239;1052;-38
2022/03/10 00:32:27;;;;;;;;;;;21.20;26.00;;;;;;498815;239;1359;-38
2022/03/10 00:34:28;;;;;;;;;;;21.20;26.00;;;;;;498649;239;1055;-39
2022/03/10 00:36:29;;;;;;;;;;;21.20;26.00;;;;;;498849;239;1059;-39
2022/03/10 00:38:31;;;;;;;;;;;21.20;26.00;;;;;;498407;239;1180;-39
2022/03/10 00:40:32;;;;;;;;;;;21.20;26.00;;;;;;498817;239;1044;-39
2022/03/10 00:42:33;;;;;;;;;;;21.20;26.00;;;;;;498430;239;2110;-38
2022/03/10 00:44:35;;;;;;;;;;;21.20;26.00;;;;;;498453;239;1027;-38
2022/03/10 00:46:36;;;;;;;;;;;21.20;26.00;;;;;;498420;239;1073;-38
2022/03/10 00:48:37;;;;;;;;;;;21.20;26.00;;;;;;498467;239;1131;-39
2022/03/10 00:50:39;;;;;;;;;;;21.20;26.00;;;;;;498382;239;1130;-38
2022/03/10 00:52:40;;;;;;;;;;;21.20;26.00;;;;;;498933;239;1049;-38
2022/03/10 00:54:41;;;;;;;;;;;21.20;26.00;;;;;;498937;239;996;-38
2022/03/10 00:56:42;;;;;;;;;;;21.20;26.00;;;;;;498849;239;1055;-38
2022/03/10 00:58:44;;;;;;;;;;;21.20;26.00;;;;;;498687;239;1050;-38
2022/03/10 01:00:45;;;;;;;;;;;21.20;26.00;;;;;;498889;239;1055;-38
2022/03/10 01:02:46;;;;;;;;;;;21.20;26.00;;;;;;498328;239;2193;-38
2022/03/10 01:04:48;;;;;;;;;;;21.20;26.00;;;;;;498875;239;1212;-39
2022/03/10 01:06:49;;;;;;;;;;;21.20;26.00;;;;;;498541;239;1344;-38
2022/03/10 01:08:50;;;;;;;;;;;21.20;26.00;;;;;;498656;239;1037;-38
2022/03/10 01:10:52;;;;;;;;;;;21.20;26.00;;;;;;498878;237;1154;-38
2022/03/10 01:12:53;;;;;;;;;;;21.20;26.00;;;;;;498841;239;1159;-39
2022/03/10 01:14:54;;;;;;;;;;;21.20;26.00;;;;;;498636;239;1020;-39
2022/03/10 01:16:56;;;;;;;;;;;21.20;26.00;;;;;;498368;239;1522;-39
2022/03/10 01:18:57;;;;;;;;;;;21.10;26.00;;;;;;498433;239;2525;-38
2022/03/10 01:20:58;;;;;;;;;;;21.20;26.10;;;;;;498897;239;1158;-38
2022/03/10 01:22:59;;;;;;;;;;;21.20;26.10;;;;;;498834;239;2197;-38
2022/03/10 01:25:01;;;;;;;;;;;21.20;26.10;;;;;;498415;239;1246;-38
2022/03/10 01:27:02;;;;;;;;;;;21.20;26.00;;;;;;498890;239;1338;-38
2022/03/10 01:29:03;;;;;;;;;;;21.20;26.00;;;;;;498593;239;1039;-39
2022/03/10 01:31:05;;;;;;;;;;;21.20;26.10;;;;;;498903;239;1407;-39
2022/03/10 01:33:06;;;;;;;;;;;21.10;26.00;;;;;;498441;239;1168;-38
2022/03/10 01:35:07;;;;;;;;;;;21.10;26.00;;;;;;498930;239;1079;-38
2022/03/10 01:37:09;;;;;;;;;;;21.20;26.10;;;;;;498379;239;1307;-38
2022/03/10 01:39:10;;;;;;;;;;;21.10;26.00;;;;;;498902;239;1055;-38
2022/03/10 01:41:11;;;;;;;;;;;21.10;26.10;;;;;;498343;239;1142;-38
2022/03/10 01:43:13;;;;;;;;;;;21.20;26.10;;;;;;498511;239;2117;-38
2022/03/10 01:45:14;;;;;;;;;;;21.10;26.00;;;;;;498463;239;1033;-38
2022/03/10 01:47:15;;;;;;;;;;;21.20;26.10;;;;;;498924;239;1036;-38
2022/03/10 01:49:17;;;;;;;;;;;21.10;26.10;;;;;;498681;239;1126;-38
2022/03/10 01:51:18;;;;;;;;;;;21.20;26.10;;;;;;498915;239;1044;-38
2022/03/10 01:53:19;;;;;;;;;;;21.10;26.00;;;;;;498958;239;1037;-38
2022/03/10 01:55:21;;;;;;;;;;;21.20;26.10;;;;;;498784;239;1046;-39
2022/03/10 01:57:22;;;;;;;;;;;21.10;26.00;;;;;;498364;239;1118;-39
2022/03/10 01:59:24;;;;;;;;;;;21.20;26.10;;;;;;498367;239;1228;-38
2022/03/10 02:01:25;;;;;;;;;;;21.20;26.10;;;;;;498850;239;1029;-38
2022/03/10 02:03:26;;;;;;;;;;;21.20;26.10;;;;;;498840;239;2117;-39
2022/03/10 02:05:28;;;;;;;;;;;21.10;26.10;;;;;;498611;239;1037;-39
2022/03/10 02:12:07;;;;;;;;;;;21.10;26.10;;;;;;498865;239;1268;-38
2022/03/10 02:18:48;;;;;;;;;;;21.10;26.10;;;;;;498652;239;1158;-38
2022/03/10 02:20:49;;;;;;;;;;;21.20;26.10;;;;;;498896;239;1044;-38
2022/03/10 02:22:50;;;;;;;;;;;21.10;26.10;;;;;;498575;239;2117;-38
2022/03/10 02:24:52;;;;;;;;;;;21.10;26.10;;;;;;498433;239;1069;-38
2022/03/10 02:26:53;;;;;;;;;;;21.10;26.10;;;;;;498702;236;1146;-38
2022/03/10 02:28:54;;;;;;;;;;;21.20;26.10;;;;;;498434;239;1033;-38
2022/03/10 02:30:56;;;;;;;;;;;21.10;26.10;;;;;;498881;239;1030;-39
2022/03/10 02:32:57;;;;;;;;;;;21.10;26.10;;;;;;498891;239;1030;-39
2022/03/10 02:34:59;;;;;;;;;;;21.20;26.10;;;;;;498596;239;1267;-38
2022/03/10 02:36:59;;;;;;;;;;;21.20;26.10;;;;;;498881;236;1366;-39
2022/03/10 02:39:01;;;;;;;;;;;21.20;26.10;;;;;;498441;239;1058;-39
2022/03/10 02:41:02;;;;;;;;;;;21.20;26.10;;;;;;498435;239;1103;-38
2022/03/10 02:43:04;;;;;;;;;;;21.10;26.20;;;;;;498612;239;2121;-39
2022/03/10 02:45:05;;;;;;;;;;;21.10;26.20;;;;;;498928;239;1072;-38
2022/03/10 02:47:06;;;;;;;;;;;21.20;26.10;;;;;;498671;239;1054;-38
2022/03/10 02:49:08;;;;;;;;;;;21.10;26.10;;;;;;498600;239;1525;-39
2022/03/10 02:51:09;;;;;;;;;;;21.10;26.10;;;;;;498825;239;1085;-38
2022/03/10 02:53:10;;;;;;;;;;;21.10;26.10;;;;;;498462;239;1065;-38
2022/03/10 02:55:12;;;;;;;;;;;21.10;26.10;;;;;;498458;239;1098;-38
2022/03/10 02:57:13;;;;;;;;;;;21.20;26.20;;;;;;498909;239;1022;-38
2022/03/10 02:59:14;;;;;;;;;;;21.10;26.10;;;;;;498590;239;1065;-38
2022/03/10 03:01:16;;;;;;;;;;;21.20;26.10;;;;;;498440;239;1041;-38
2022/03/10 03:03:17;;;;;;;;;;;21.20;26.10;;;;;;498872;239;2109;-38
2022/03/10 03:05:19;;;;;;;;;;;21.20;26.20;;;;;;498583;239;1257;-38
2022/03/10 03:07:20;;;;;;;;;;;21.10;26.10;;;;;;498739;239;1081;-38
2022/03/10 03:09:21;;;;;;;;;;;21.20;26.10;;;;;;498593;239;1060;-38
2022/03/10 03:11:22;;;;;;;;;;;21.20;26.10;;;;;;498496;239;1056;-39
2022/03/10 03:13:24;;;;;;;;;;;21.20;26.10;;;;;;498415;239;1078;-39
2022/03/10 03:15:25;;;;;;;;;;;21.20;26.10;;;;;;498500;239;1061;-38
2022/03/10 03:17:26;;;;;;;;;;;21.20;26.10;;;;;;498946;239;1016;-38
2022/03/10 03:19:28;;;;;;;;;;;21.10;26.10;;;;;;498490;239;1167;-38
2022/03/10 03:21:29;;;;;;;;;;;21.20;26.20;;;;;;498545;239;1047;-38
2022/03/10 03:23:30;;;;;;;;;;;21.20;26.10;;;;;;498932;239;2101;-38
2022/03/10 03:25:32;;;;;;;;;;;21.10;26.10;;;;;;498680;239;1064;-38
2022/03/10 03:27:33;;;;;;;;;;;21.10;26.10;;;;;;498729;239;1064;-38
2022/03/10 03:29:34;;;;;;;;;;;21.10;26.20;;;;;;498858;239;1108;-38
2022/03/10 03:31:35;;;;;;;;;;;21.10;26.20;;;;;;498607;239;1213;-39
2022/03/10 03:33:37;;;;;;;;;;;21.10;26.20;;;;;;498586;239;1048;-38
2022/03/10 03:35:38;;;;;;;;;;;21.20;26.20;;;;;;498619;239;1203;-38
2022/03/10 03:37:39;;;;;;;;;;;21.10;26.20;;;;;;498407;239;1066;-39
2022/03/10 03:39:41;;;;;;;;;;;21.10;26.20;;;;;;498895;239;1032;-39
2022/03/10 03:41:42;;;;;;;;;;;21.10;26.20;;;;;;498750;239;1141;-38
2022/03/10 03:43:43;;;;;;;;;;;21.10;26.20;;;;;;498588;239;2106;-39
2022/03/10 03:45:45;;;;;;;;;;;21.10;26.20;;;;;;498354;239;981;-39
2022/03/10 03:47:46;;;;;;;;;;;21.10;26.20;;;;;;498369;239;1507;-39
2022/03/10 03:49:47;;;;;;;;;;;21.10;26.20;;;;;;498562;239;1096;-38
2022/03/10 03:51:49;;;;;;;;;;;21.10;26.10;;;;;;498584;239;1159;-39
2022/03/10 03:53:50;;;;;;;;;;;21.20;26.20;;;;;;498887;239;1184;-39
2022/03/10 03:55:51;;;;;;;;;;;21.10;26.20;;;;;;498429;239;1440;-38
2022/03/10 03:57:53;;;;;;;;;;;21.10;26.20;;;;;;498326;239;1212;-38
2022/03/10 03:59:54;;;;;;;;;;;21.10;26.20;;;;;;498581;239;1030;-38
2022/03/10 04:01:55;;;;;;;;;;;21.10;26.20;;;;;;498895;239;1045;-38
2022/03/10 04:03:57;;;;;;;;;;;21.10;26.20;;;;;;498576;239;2192;-39
2022/03/10 04:05:58;;;;;;;;;;;21.10;26.20;;;;;;498461;239;1198;-39
2022/03/10 04:07:59;;;;;;;;;;;21.10;26.20;;;;;;498450;239;1083;-38
2022/03/10 04:10:00;;;;;;;;;;;21.10;26.20;;;;;;498421;239;1310;-38
2022/03/10 04:12:02;;;;;;;;;;;21.10;26.20;;;;;;498823;238;1193;-38
2022/03/10 04:14:03;;;;;;;;;;;21.10;26.20;;;;;;498875;239;1049;-38
2022/03/10 04:16:06;;;;;;;;;;;21.10;26.20;;;;;;498690;239;1332;-38
2022/03/10 04:18:06;;;;;;;;;;;21.10;26.30;;;;;;498482;239;1392;-39
2022/03/10 04:20:08;;;;;;;;;;;21.10;26.20;;;;;;498835;235;1227;-38
2022/03/10 04:22:09;;;;;;;;;;;21.10;26.20;;;;;;498799;239;1677;-39
2022/03/10 04:24:10;;;;;;;;;;;21.10;26.20;;;;;;498918;239;2125;-38
2022/03/10 04:26:11;;;;;;;;;;;21.10;26.20;;;;;;498703;239;1322;-38
2022/03/10 04:28:13;;;;;;;;;;;21.10;26.20;;;;;;498450;239;1223;-39
2022/03/10 04:30:14;;;;;;;;;;;21.10;26.20;;;;;;498780;239;2025;-39
2022/03/10 04:32:16;;;;;;;;;;;21.20;26.20;;;;;;498862;239;1162;-38
2022/03/10 04:34:17;;;;;;;;;;;21.10;26.20;;;;;;498900;239;1326;-38
2022/03/10 04:36:19;;;;;;;;;;;21.10;26.20;;;;;;498583;239;1185;-38
2022/03/10 04:38:20;;;;;;;;;;;21.10;26.30;;;;;;498740;239;1314;-38
2022/03/10 04:40:21;;;;;;;;;;;21.10;26.30;;;;;;498423;239;1059;-38
2022/03/10 04:42:23;;;;;;;;;;;21.10;26.20;;;;;;498880;239;1335;-38
2022/03/10 04:44:24;;;;;;;;;;;21.10;26.20;;;;;;498418;239;2109;-39
2022/03/10 04:46:25;;;;;;;;;;;21.10;26.20;;;;;;498878;239;1048;-38
2022/03/10 04:48:27;;;;;;;;;;;21.20;26.20;;;;;;498621;239;1191;-38
2022/03/10 04:50:29;;;;;;;;;;;21.20;26.20;;;;;;498837;239;1106;-39
2022/03/10 04:52:29;;;;;;;;;;;21.20;26.20;;;;;;498882;239;1260;-38
2022/03/10 04:54:31;;;;;;;;;;;21.10;26.20;;;;;;498427;239;1049;-38
2022/03/10 04:56:32;;;;;;;;;;;21.10;26.20;;;;;;498428;239;1238;-39
2022/03/10 04:58:33;;;;;;;;;;;21.10;26.20;;;;;;498949;239;1064;-38
2022/03/10 05:00:35;;;;;;;;;;;21.10;26.20;;;;;;498902;239;1155;-38
2022/03/10 05:02:36;;;;;;;;;;;21.10;26.20;;;;;;498443;239;2181;-38
2022/03/10 05:04:37;;;;;;;;;;;21.10;26.20;;;;;;498949;239;1046;-39
2022/03/10 05:06:39;;;;;;;;;;;21.10;26.20;;;;;;498622;239;1217;-39
2022/03/10 05:08:40;;;;;;;;;;;21.10;26.20;;;;;;498527;239;1075;-39
2022/03/10 05:10:41;;;;;;;;;;;21.10;26.20;;;;;;498892;239;1132;-39
2022/03/10 05:12:43;;;;;;;;;;;21.10;26.20;;;;;;498402;239;1056;-39
2022/03/10 05:14:44;;;;;;;;;;;21.20;26.20;;;;;;498396;239;1073;-38
2022/03/10 05:16:45;;;;;;;;;;;21.10;26.20;;;;;;498398;239;1103;-38
2022/03/10 05:18:46;;;;;;;;;;;21.10;26.20;;;;;;498452;239;1032;-38
2022/03/10 05:20:48;;;;;;;;;;;21.10;26.20;;;;;;498788;239;2196;-38
2022/03/10 05:22:49;;;;;;;;;;;21.10;26.20;;;;;;498669;239;2180;-38
2022/03/10 05:24:50;;;;;;;;;;;21.10;26.20;;;;;;498748;239;1062;-39
2022/03/10 05:26:52;;;;;;;;;;;21.10;26.20;;;;;;498662;239;1422;-39
2022/03/10 05:28:53;;;;;;;;;;;21.20;26.20;;;;;;498603;239;1224;-38
2022/03/10 05:30:54;;;;;;;;;;;21.10;26.20;;;;;;498272;239;1154;-38
2022/03/10 05:32:56;;;;;;;;;;;21.20;26.20;;;;;;498559;239;1122;-38
2022/03/10 05:34:57;;;;;;;;;;;21.10;26.20;;;;;;498589;239;1118;-38
2022/03/10 05:36:58;;;;;;;;;;;21.10;26.20;;;;;;498443;239;1448;-38
2022/03/10 05:39:00;;;;;;;;;;;21.20;26.20;;;;;;498555;239;1091;-38
2022/03/10 05:41:01;;;;;;;;;;;21.20;26.30;;;;;;498594;239;1100;-38
2022/03/10 05:43:02;;;;;;;;;;;21.20;26.20;;;;;;498338;239;2102;-38
2022/03/10 05:45:04;;;;;;;;;;;21.20;26.20;;;;;;498605;239;1132;-38
2022/03/10 05:47:06;;;;;;;;;;;21.20;26.20;;;;;;498233;239;1187;-38
2022/03/10 05:49:06;;;;;;;;;;;21.20;26.20;;;;;;498164;239;2210;-38
2022/03/10 05:51:08;;;;;;;;;;;21.20;26.20;;;;;;498126;239;1064;-39
2022/03/10 05:53:09;;;;;;;;;;;21.20;26.20;;;;;;498237;239;1212;-39
2022/03/10 05:55:10;;;;;;;;;;;21.10;26.20;;;;;;498183;239;1067;-39
2022/03/10 05:57:12;;;;;;;;;;;21.10;26.20;;;;;;498487;239;1090;-38
2022/03/10 05:59:13;;;;;;;;;;;21.10;26.20;;;;;;498561;239;1110;-38
2022/03/10 06:01:14;;;;;;;;;;;21.10;26.20;;;;;;498259;239;1112;-39
2022/03/10 06:03:15;;;;;;;;;;;21.10;26.30;;;;;;498218;239;2188;-39
2022/03/10 06:05:17;;;;;;;;;;;21.20;26.20;;;;;;498200;239;1067;-38
2022/03/10 06:07:18;;;;;;;;;;;21.20;26.30;;;;;;498199;239;1204;-38
2022/03/10 06:09:19;;;;;;;;;;;21.20;26.20;;;;;;498718;239;1093;-38
2022/03/10 06:11:21;;;;;;;;;;;21.20;26.30;;;;;;498247;239;1043;-38
2022/03/10 06:13:22;;;;;;;;;;;21.20;26.20;;;;;;498238;239;1060;-38
2022/03/10 06:15:25;;;;;;;;;;;21.20;26.20;;;;;;498495;239;1058;-38
2022/03/10 06:17:26;;;;;;;;;;;21.20;26.20;;;;;;498120;239;1156;-38
2022/03/10 06:19:27;;;;;;;;;;;21.20;26.20;;;;;;498195;239;1109;-38
2022/03/10 06:21:29;;;;;;;;;;;21.20;26.20;;;;;;498237;239;1082;-38
2022/03/10 06:23:30;;;;;;;;;;;21.20;26.20;;;;;;498112;239;2126;-39
2022/03/10 06:25:31;;;;;;;;;;;21.20;26.20;;;;;;498402;239;1059;-38
2022/03/10 06:27:33;;;;;;;;;;;21.20;26.20;;;;;;498413;239;1071;-38
2022/03/10 06:29:34;;;;;;;;;;;21.20;26.30;;;;;;498133;239;1080;-38
2022/03/10 06:31:36;;;;;;;;;;;21.20;26.30;;;;;;497990;239;1060;-38
2022/03/10 06:33:37;;;;;;;;;;;21.20;26.20;;;;;;497997;239;1060;-39
2022/03/10 06:35:38;;;;;;;;;;;21.20;26.30;;;;;;498141;239;1076;-38
2022/03/10 06:37:40;;;;;;;;;;;21.20;26.30;;;;;;498121;239;1197;-38
2022/03/10 06:39:41;;;;;;;;;;;21.10;26.20;;;;;;497882;239;1060;-39
2022/03/10 06:41:43;;;;;;;;;;;21.10;26.30;;;;;;498001;239;1091;-38
2022/03/10 06:43:44;;;;;;;;;;;21.20;26.30;;;;;;498029;239;2177;-38
2022/03/10 06:45:45;;;;;;;;;;;21.20;26.30;;;;;;498058;239;1430;-38
2022/03/10 06:47:47;;;;;;;;;;;21.20;26.30;;;;;;498031;239;1075;-38
2022/03/10 06:49:48;;;;;;;;;;;21.20;26.30;;;;;;498024;239;1117;-39
2022/03/10 06:51:50;;;;;;;;;;;21.10;26.20;;;;;;497844;238;1212;-38
2022/03/10 06:53:51;;;;;;;;;;;21.20;26.30;;;;;;498042;239;1182;-38
2022/03/10 06:55:52;;;;;;;;;;;21.10;26.30;;;;;;498005;239;1183;-39
2022/03/10 06:57:54;;;;;;;;;;;21.10;26.20;;;;;;498124;239;1093;-38
2022/03/10 06:59:55;;;;;;;;;;;21.20;26.30;;;;;;498265;239;1327;-38
2022/03/10 07:01:56;;;;;;;;;;;21.20;26.30;;;;;;497942;239;1165;-39
2022/03/10 07:03:58;;;;;;;;;;;21.20;26.20;;;;;;497876;239;2166;-38
2022/03/10 07:05:59;;;;;;;;;;;21.20;26.30;;;;;;497859;239;1285;-38
2022/03/10 07:08:00;;;;;;;;;;;21.20;26.30;;;;;;497976;239;1136;-39
2022/03/10 07:10:02;;;;;;;;;;;21.20;26.30;;;;;;498034;239;1063;-38
2022/03/10 07:12:03;;;;;;;;;;;21.20;26.30;;;;;;497894;239;1344;-38
2022/03/10 07:14:04;;;;;;;;;;;21.20;26.30;;;;;;498019;239;1087;-38
2022/03/10 07:16:06;;;;;;;;;;;21.20;26.30;;;;;;497774;236;1149;-39
2022/03/10 07:18:08;;;;;;;;;;;21.20;26.30;;;;;;497741;239;1186;-38
2022/03/10 07:20:08;;;;;;;;;;;21.20;26.30;;;;;;497751;239;1424;-38
2022/03/10 07:22:10;;;;;;;;;;;21.20;26.20;;;;;;497718;239;1201;-39
2022/03/10 07:24:11;;;;;;;;;;;21.20;26.20;;;;;;497860;239;2134;-38
2022/03/10 07:26:12;;;;;;;;;;;21.20;26.20;;;;;;497785;239;1130;-38
2022/03/10 07:28:14;;;;;;;;;;;21.20;26.20;;;;;;497682;239;1275;-38
2022/03/10 07:30:15;;;;;;;;;;;21.20;26.20;;;;;;497678;239;1192;-38
2022/03/10 07:32:17;;;;;;;;;;;21.10;26.20;;;;;;497810;239;1674;-39
2022/03/10 07:34:18;;;;;;;;;;;21.20;26.20;;;;;;498086;239;1131;-39
2022/03/10 07:36:19;;;;;;;;;;;21.20;26.20;;;;;;497753;239;1292;-38
2022/03/10 07:38:20;;;;;;;;;;;21.20;26.20;;;;;;497705;239;1141;-38
2022/03/10 07:40:22;;;;;;;;;;;21.20;26.20;;;;;;497661;239;1108;-39
2022/03/10 07:42:23;;;;;;;;;;;21.20;26.20;;;;;;497600;239;1237;-39
2022/03/10 07:44:25;;;;;;;;;;;21.20;26.20;;;;;;497725;239;2129;-38
2022/03/10 07:46:26;;;;;;;;;;;21.20;26.20;;;;;;497704;236;1347;-38
2022/03/10 07:48:27;;;;;;;;;;;21.20;26.20;;;;;;497829;239;1094;-38
2022/03/10 07:50:29;;;;;;;;;;;21.20;26.20;;;;;;497786;239;1234;-39
2022/03/10 07:52:30;;;;;;;;;;;21.20;26.20;;;;;;497731;239;1113;-38
2022/03/10 07:54:32;;;;;;;;;;;21.20;26.20;;;;;;497774;239;1260;-38
2022/03/10 07:56:33;;;;;;;;;;;21.20;26.20;;;;;;497757;239;1189;-39
2022/03/10 07:58:34;;;;;;;;;;;21.20;26.20;;;;;;497958;239;1072;-39
2022/03/10 08:00:36;;;;;;;;;;;21.20;26.20;;;;;;497711;239;1098;-39
2022/03/10 08:02:37;;;;;;;;;;;21.20;26.20;;;;;;497689;239;1252;-38
2022/03/10 08:04:39;;;;;;;;;;;21.20;26.10;;;;;;497681;239;2177;-38
2022/03/10 08:06:40;;;;;;;;;;;21.20;26.20;;;;;;497522;239;1368;-39
2022/03/10 08:08:43;;;;;;;;;;;21.20;26.20;;;;;;497628;239;1194;-38
2022/03/10 08:10:42;;;;;;;;;;;21.20;26.10;;;;;;497477;239;1914;-38
2022/03/10 08:12:44;;;;;;;;;;;21.20;26.10;;;;;;497560;239;1131;-39
2022/03/10 08:14:45;;;;;;;;;;;21.20;26.10;;;;;;497483;239;1103;-39
2022/03/10 08:16:46;;;;;;;;;;;21.20;26.10;;;;;;497457;239;1080;-38
2022/03/10 08:18:49;;;;;;;;;;;21.20;26.10;;;;;;497602;239;1058;-38
2022/03/10 08:20:49;;;;;;;;;;;21.20;26.10;;;;;;497510;239;2279;-38
2022/03/10 08:22:51;;;;;;;;;;;21.20;26.10;;;;;;497590;239;1071;-38
2022/03/10 08:24:52;;;;;;;;;;;21.20;26.10;;;;;;497582;239;2189;-38
2022/03/10 08:26:53;;;;;;;;;;;21.20;26.10;;;;;;497601;239;1097;-38
2022/03/10 08:28:55;;;;;;;;;;;21.20;26.10;;;;;;497493;239;1092;-38
2022/03/10 08:30:56;;;;;;;;;;;21.20;26.10;;;;;;497454;239;1133;-39
2022/03/10 08:32:58;;;;;;;;;;;21.20;26.10;;;;;;497633;239;1264;-39
2022/03/10 08:34:59;;;;;;;;;;;21.10;26.10;;;;;;497533;239;1193;-38
2022/03/10 08:37:00;;;;;;;;;;;21.10;26.10;;;;;;497556;239;1128;-38
2022/03/10 08:39:02;;;;;;;;;;;21.20;26.10;;;;;;497775;239;1131;-38
2022/03/10 08:41:03;;;;;;;;;;;21.20;26.10;;;;;;497714;236;1147;-38
2022/03/10 08:43:08;;;;;;;;;;;21.20;26.10;;;;;;498056;239;984;-38
2022/03/10 08:45:07;;;;;;;;;;;21.20;26.10;;;;;;497227;239;2177;-39
2022/03/10 08:47:08;;;;;;;;;;;21.20;26.10;;;;;;497460;239;1137;-38
2022/03/10 08:49:10;;;;;;;;;;;21.20;26.10;;;;;;497748;239;1069;-38
2022/03/10 08:51:11;;;;;;;;;;;21.10;26.10;;;;;;497600;239;1148;-39
2022/03/10 08:53:12;;;;;;;;;;;21.20;26.10;;;;;;497722;239;1072;-38
2022/03/10 08:55:15;;;;;;;;;;;21.20;26.10;;;;;;497643;239;1205;-39
2022/03/10 08:57:16;;;;;;;;;;;21.20;26.00;;;;;;497549;239;1215;-39
2022/03/10 08:59:18;;;;;;;;;;;21.20;26.00;;;;;;497405;239;1184;-39
2022/03/10 09:01:19;;;;;;;;;;;21.20;26.00;;;;;;497233;239;1149;-39
2022/03/10 09:03:20;;;;;;;;;;;21.10;26.00;;;;;;497519;239;1085;-39
2022/03/10 09:05:22;;;;;;;;;;;21.20;26.10;;;;;;497531;239;2130;-39
2022/03/10 09:07:23;;;;;;;;;;;21.20;26.10;;;;;;497582;239;1103;-38
2022/03/10 09:09:25;;;;;;;;;;;21.20;26.00;;;;;;497800;239;1186;-38
2022/03/10 09:11:26;;;;;;;;;;;21.10;26.00;;;;;;497571;239;1091;-38
2022/03/10 09:13:28;;;;;;;;;;;21.10;26.00;;;;;;497615;239;1053;-39
2022/03/10 09:15:28;;;;;;;;;;;21.20;26.00;;;;;;497518;239;2381;-39
2022/03/10 09:17:30;;;;;;;;;;;21.20;26.00;;;;;;497494;239;1146;-38
2022/03/10 09:19:31;;;;;;;;;;;21.20;26.00;;;;;;497538;239;1116;-39
2022/03/10 09:21:32;;;;;;;;;;;21.20;26.00;;;;;;497408;239;1188;-39
2022/03/10 09:23:34;;;;;;;;;;;21.20;26.00;;;;;;497367;239;1101;-39
2022/03/10 09:25:35;;;;;;;;;;;21.20;26.00;;;;;;497189;239;2173;-38
2022/03/10 09:27:36;;;;;;;;;;;21.20;26.00;;;;;;497394;239;1192;-38
2022/03/10 09:29:38;;;;;;;;;;;21.20;26.00;;;;;;497453;239;1080;-38
2022/03/10 09:31:39;;;;;;;;;;;21.20;26.00;;;;;;497383;239;1526;-38
2022/03/10 09:33:41;;;;;;;;;;;21.20;26.00;;;;;;497639;239;1083;-39
2022/03/10 09:35:42;;;;;;;;;;;21.10;26.00;;;;;;497351;239;1109;-39
2022/03/10 09:37:43;;;;;;;;;;;21.20;26.00;;;;;;497316;239;1158;-38
2022/03/10 09:39:45;;;;;;;;;;;21.20;26.00;;;;;;497296;239;1171;-38
2022/03/10 09:41:46;;;;;;;;;;;21.10;26.00;;;;;;497316;239;1447;-38
2022/03/10 09:43:48;;;;;;;;;;;21.10;26.00;;;;;;497558;239;1120;-39
2022/03/10 09:45:49;;;;;;;;;;;21.10;26.00;;;;;;497298;239;2189;-39
2022/03/10 09:47:50;;;;;;;;;;;21.20;26.00;;;;;;497392;239;1147;-38
2022/03/10 09:49:51;;;;;;;;;;;21.10;26.00;;;;;;497193;239;1067;-39
2022/03/10 09:51:53;;;;;;;;;;;21.10;26.00;;;;;;497171;239;1226;-39
2022/03/10 09:53:54;;;;;;;;;;;21.10;26.00;;;;;;497543;239;1129;-38
2022/03/10 09:55:55;;;;;;;;;;;21.10;26.00;;;;;;497362;239;1184;-38
2022/03/10 09:57:56;;;;;;;;;;;21.20;26.00;;;;;;497418;239;1114;-39
2022/03/10 09:59:58;;;;;;;;;;;21.20;26.00;;;;;;497369;238;1212;-38
2022/03/10 10:02:00;;;;;;;;;;;21.20;25.90;;;;;;497348;239;1045;-39
2022/03/10 10:04:00;;;;;;;;;;;21.20;26.00;;;;;;497368;239;2202;-39
2022/03/10 10:06:02;;;;;;;;;;;21.10;26.00;;;;;;497525;239;2125;-38
2022/03/10 10:08:03;;;;;;;;;;;21.20;26.00;;;;;;497402;239;1241;-38
2022/03/10 10:10:06;;;;;;;;;;;21.10;26.00;;;;;;497500;239;1234;-39
2022/03/10 10:12:06;;;;;;;;;;;21.10;26.00;;;;;;497232;239;2347;-39
2022/03/10 10:14:07;;;;;;;;;;;21.20;26.00;;;;;;497267;239;1303;-38
2022/03/10 10:16:08;;;;;;;;;;;21.10;25.90;;;;;;497217;239;1089;-39
2022/03/10 10:18:10;;;;;;;;;;;21.10;26.00;;;;;;497396;239;1420;-38
2022/03/10 10:20:11;;;;;;;;;;;21.10;25.90;;;;;;497490;239;1372;-39
2022/03/10 10:22:13;;;;;;;;;;;21.10;26.00;;;;;;497435;239;1087;-38
2022/03/10 10:24:14;;;;;;;;;;;21.10;26.00;;;;;;497527;239;1245;-39
2022/03/10 10:26:16;;;;;;;;;;;21.10;26.00;;;;;;497433;239;2177;-39
2022/03/10 10:28:17;;;;;;;;;;;21.10;25.90;;;;;;497425;239;1073;-39
2022/03/10 10:30:18;;;;;;;;;;;21.10;26.00;;;;;;497428;239;1239;-39
2022/03/10 10:32:20;;;;;;;;;;;21.10;25.90;;;;;;497480;239;1191;-38
2022/03/10 10:34:21;;;;;;;;;;;21.20;25.90;;;;;;497503;239;1076;-38
2022/03/10 10:36:24;;;;;;;;;;;21.20;25.90;;;;;;497231;239;1295;-39
2022/03/10 10:38:24;;;;;;;;;;;21.20;25.90;;;;;;497778;239;2210;-38
2022/03/10 10:40:26;;;;;;;;;;;21.10;25.90;;;;;;498088;239;1107;-39
2022/03/10 10:42:28;;;;;;;;;;;21.10;25.90;;;;;;497706;239;1369;-38
2022/03/10 10:44:29;;;;;;;;;;;21.10;26.00;;;;;;498296;239;865;-39
2022/03/10 10:46:30;;;;;;;;;;;21.10;25.90;;;;;;497686;239;2197;-39
2022/03/10 10:48:32;;;;;;;;;;;21.10;26.00;;;;;;498279;239;919;-39
2022/03/10 10:50:33;;;;;;;;;;;21.10;26.00;;;;;;498179;239;1018;-38
2022/03/10 10:52:34;;;;;;;;;;;21.10;25.90;;;;;;497804;238;1102;-38
2022/03/10 10:54:35;;;;;;;;;;;21.10;25.90;;;;;;497902;239;1033;-39
2022/03/10 10:56:37;;;;;;;;;;;21.10;25.90;;;;;;497808;237;1221;-39
2022/03/10 10:58:39;;;;;;;;;;;21.10;25.90;;;;;;497552;239;1088;-38
2022/03/10 11:00:39;;;;;;;;;;;21.10;25.90;;;;;;497488;239;1371;-38
2022/03/10 11:02:42;;;;;;;;;;;21.10;25.90;;;;;;497542;239;1292;-38
2022/03/10 11:04:44;;;;;;;;;;;21.10;25.90;;;;;;497436;239;2110;-39
2022/03/10 11:06:45;;;;;;;;;;;21.10;25.90;;;;;;497382;239;1327;-39
2022/03/10 11:08:47;;;;;;;;;;;21.10;25.90;;;;;;497188;239;1097;-38
2022/03/10 11:10:48;;;;;;;;;;;21.10;25.90;;;;;;497283;239;1295;-39
2022/03/10 11:12:49;;;;;;;;;;;21.10;25.90;;;;;;497302;239;1136;-39
2022/03/10 11:14:51;;;;;;;;;;;21.10;25.90;;;;;;497425;239;1137;-38
2022/03/10 11:16:52;;;;;;;;;;;21.10;25.90;;;;;;497219;239;1337;-39
2022/03/10 11:18:54;;;;;;;;;;;21.10;25.90;;;;;;497352;239;1090;-38
2022/03/10 11:20:55;;;;;;;;;;;21.10;25.90;;;;;;497130;239;2088;-39
2022/03/10 11:22:56;;;;;;;;;;;21.10;25.80;;;;;;497348;239;1192;-38
2022/03/10 11:24:57;;;;;;;;;;;21.10;25.80;;;;;;497373;239;2184;-39
2022/03/10 11:26:58;;;;;;;;;;;21.10;25.80;;;;;;497278;239;1177;-39
2022/03/10 11:29:00;;;;;;;;;;;21.10;25.80;;;;;;497542;239;1078;-39
2022/03/10 11:31:01;;;;;;;;;;;21.10;25.90;;;;;;497524;239;1383;-38
2022/03/10 11:33:02;;;;;;;;;;;21.10;25.80;;;;;;497485;239;1186;-38
2022/03/10 11:35:04;;;;;;;;;;;21.10;25.90;;;;;;497573;239;1228;-38
2022/03/10 11:37:05;;;;;;;;;;;21.10;25.90;;;;;;497483;239;1184;-38
2022/03/10 11:39:07;;;;;;;;;;;21.10;25.90;;;;;;497361;239;1083;-39
2022/03/10 11:41:08;;;;;;;;;;;21.10;25.80;;;;;;497455;239;1185;-38
2022/03/10 11:43:10;;;;;;;;;;;21.20;25.80;;;;;;497459;239;1158;-38
2022/03/10 11:45:11;;;;;;;;;;;21.20;25.80;;;;;;497448;239;2106;-39
2022/03/10 11:47:12;;;;;;;;;;;21.10;25.80;;;;;;497445;239;1112;-39
2022/03/10 11:49:15;;;;;;;;;;;21.10;25.80;;;;;;497510;239;1121;-38
2022/03/10 11:51:15;;;;;;;;;;;21.10;25.80;;;;;;497392;239;2417;-39
2022/03/10 11:53:16;;;;;;;;;;;21.10;25.70;;;;;;497394;239;1212;-38
2022/03/10 11:55:18;;;;;;;;;;;21.10;25.80;;;;;;497281;239;1120;-38
2022/03/10 11:57:19;;;;;;;;;;;21.10;25.80;;;;;;497197;239;1208;-39
2022/03/10 11:59:20;;;;;;;;;;;21.10;25.80;;;;;;497230;239;1087;-38
2022/03/10 12:01:22;;;;;;;;;;;21.10;25.80;;;;;;497080;239;1179;-38
2022/03/10 12:03:23;;;;;;;;;;;21.10;25.70;;;;;;497282;239;1961;-39
2022/03/10 12:05:24;;;;;;;;;;;21.10;25.70;;;;;;497343;239;2166;-38